Time,TemperatureF,DewpointF,PressureIn,WindDirection,WindDirectionDegrees,WindSpeedMPH,WindSpeedGustMPH,Humidity,HourlyPrecipIn,Conditions,Clouds,dailyrainin,SoftwareType,DateUTC
2013-11-06 00:00:00,52.0,-99.9,30.10,SSE,160,15.0,-999.0,-999,-99.99,,,-99.99,,2013-11-06 05:00:00,
2013-11-06 00:23:00,52.0,-99.9,30.10,SSE,160,15.0,-999.0,-999,-99.99,,,-99.99,,2013-11-06 05:23:00,
2013-11-06 00:34:00,52.0,-99.9,30.10,SSE,160,15.0,-999.0,-999,-99.99,,,-99.99,,2013-11-06 05:34:00,
2013-11-06 00:44:00,52.0,-99.9,30.10,SSE,160,15.0,-999.0,-999,-99.99,,,-99.99,,2013-11-06 05:44:00,
2013-11-06 00:54:00,52.0,-99.9,30.10,SSE,160,15.0,-999.0,-999,-99.99,,,-99.99,,2013-11-06 05:54:00,
2013-11-06 02:00:00,53.0,-99.9,30.05,South,170,21.0,-999.0,-999,-99.99,,,-99.99,,2013-11-06 07:00:00,
2013-11-06 02:42:00,53.0,-99.9,30.05,South,170,21.0,-999.0,-999,-99.99,,,-99.99,,2013-11-06 07:42:00,
2013-11-06 02:52:00,53.0,-99.9,30.05,South,170,21.0,-999.0,-999,-99.99,,,-99.99,,2013-11-06 07:52:00,
2013-11-06 04:00:00,55.0,-99.9,30.99,South,170,21.0,-999.0,-999,-99.99,,,-99.99,,2013-11-06 09:00:00,
2013-11-06 04:43:00,55.0,-99.9,30.99,South,170,21.0,-999.0,-999,-99.99,,,-99.99,,2013-11-06 09:43:00,
2013-11-06 04:53:00,55.0,-99.9,30.99,South,170,21.0,-999.0,-999,-99.99,,,-99.99,,2013-11-06 09:53:00,
2013-11-06 05:00:00,52.0,-99.9,29.96,South,190,34.0,-999.0,-999,-99.99,,,-99.99,,2013-11-06 10:00:00,
2013-11-06 05:42:00,52.0,-99.9,29.96,South,190,34.0,-999.0,-999,-99.99,,,-99.99,,2013-11-06 10:42:00,
2013-11-06 05:53:00,52.0,-99.9,29.96,South,190,34.0,-999.0,-999,-99.99,,,-99.99,,2013-11-06 10:53:00,
2013-11-06 06:00:00,53.0,-99.9,29.92,South,180,31.0,-999.0,-999,-99.99,,,-99.99,,2013-11-06 11:00:00,
2013-11-06 06:22:00,53.0,-99.9,29.92,South,180,31.0,-999.0,-999,-99.99,,,-99.99,,2013-11-06 11:22:00,
2013-11-06 06:33:00,53.0,-99.9,29.92,South,180,31.0,-999.0,-999,-99.99,,,-99.99,,2013-11-06 11:33:00,
2013-11-06 06:42:00,53.0,-99.9,29.92,South,180,31.0,-999.0,-999,-99.99,,,-99.99,,2013-11-06 11:42:00,
2013-11-06 06:52:00,53.0,-99.9,29.92,South,180,31.0,-999.0,-999,-99.99,,,-99.99,,2013-11-06 11:52:00,
2013-11-06 07:00:00,51.0,-99.9,29.86,South,170,25.0,-999.0,-999,-99.99,,,-99.99,,2013-11-06 12:00:00,
2013-11-06 07:52:00,51.0,-99.9,29.86,South,170,25.0,-999.0,-999,-99.99,,,-99.99,,2013-11-06 12:52:00,
2013-11-06 09:00:00,50.0,-99.9,29.79,South,180,30.0,-999.0,-999,-99.99,,,-99.99,,2013-11-06 14:00:00,
2013-11-06 09:42:00,50.0,-99.9,29.79,South,180,30.0,-999.0,-999,-99.99,,,-99.99,,2013-11-06 14:42:00,
2013-11-06 09:52:00,50.0,-99.9,29.79,South,180,30.0,-999.0,-999,-99.99,,,-99.99,,2013-11-06 14:52:00,
2013-11-06 11:00:00,52.0,-99.9,29.71,SSW,200,16.0,-999.0,-999,-99.99,,,-99.99,,2013-11-06 16:00:00,
2013-11-06 11:53:00,52.0,-99.9,29.71,SSW,200,16.0,-999.0,-999,-99.99,,,-99.99,,2013-11-06 16:53:00,